Mateus Martins

Chief Scout - Internacional
17 Feb 2028
Thursday
Process

Personality

Adaptability (13) Ambition (18) Controversy (1) Loyalty (12) Pressure (12) Professionalism (9) Sportsmanship (12) Temperament (1)

Profile

Coaching Style Democratic
License Continental Pro
Determination 7
Man Management 10
Motivating 12
Discipline 12
Job Satisfaction
100%
Fatigue
0%
Role Chief Scout
Wage 83.4K p/w
Contract 14.03.2029

Performance

Behaviour Good
Training Effectiveness
51%
Player Development
35%
Injury Prevention
60%
Tactical Implementation
40%

Recent Events

Assessed a player now
Attended a recruitment meeting now
Attended a recruitment meeting now
Recommended a transfer target now
Assessed a player 7d ago
Assessed a player 7d ago
Assessed a player 7d ago
Assessed a player 7d ago

Currently Monitoring

270
Player Club Status Ability Confidence Watched Last Observed Latest Vote
Caio Alexandre Bahia Active 130 / 130 40% 4 16.02.2028 -
Tomás Cuello Atlético Mineiro Active 126 / 131 40% 1 16.02.2028 -
Brennan Johnson Stoke City Active 145 / 148 40% 1 16.02.2028 -
Kevin Schade Brentford Active 157 / 159 40% 3 14.02.2028 -
Tom Cannon Sheffield United Active 125 / 130 40% 1 14.02.2028 -
Jhon Durán Al-Nassr Active 147 / 143 40% 1 14.02.2028 -
Vitinho Botafogo Active 141 / 133 40% 8 13.02.2028 -
Matheuzinho Vitória Active 124 / 122 40% 5 13.02.2028 -
Rodrigo Nestor Bahia Active 132 / 123 40% 1 13.02.2028 -
Marquinhos Spartak Moscow Active 128 / 141 40% 1 11.02.2028 -
Petar Stanić Ludogorets Active 131 / 141 40% 1 11.02.2028 -
Benjamín Rollheiser Santos Active 134 / 139 40% 7 10.02.2028 -
Álvaro Barreal Santos Active 138 / 140 40% 3 10.02.2028 -
Negueba Mirassol Active 133 / 121 40% 2 10.02.2028 Needs More Info
Lucas Piton Vasco da Gama Active 130 / 129 40% 3 09.02.2028 -
Matheuzinho Corinthians Active 130 / 132 40% 2 09.02.2028 -
Dango Ouattara Brentford Active 160 / 155 40% 7 08.02.2028 -
Renan Lodi Atlético Mineiro Active 143 / 131 40% 10 08.02.2028 -
Rodrigo Garro Corinthians Active 146 / 144 40% 2 07.02.2028 -
Quinn Sullivan Philadelphia Union Active 135 / 125 40% 2 07.02.2028 -
Yeremy Pino Crystal Palace Active 156 / 156 40% 2 06.02.2028 -
Assane Diao Lazio Active 162 / 151 40% 5 05.02.2028 -
Santiago Sosa Vasco da Gama Active 140 / 132 40% 1 05.02.2028 -
Luciano Boggio Nacional Active 126 / 126 40% 2 04.02.2028 -
Pedro de la Vega FC Dallas Active 151 / 129 40% 2 04.02.2028 -
Danilo Botafogo Active 140 / 137 40% 2 04.02.2028 -
Wilson Odobert Bristol City Active 156 / 143 40% 4 03.02.2028 -
Ferreirinha Sport Recife Active 128 / 127 40% 3 03.02.2028 Monitor
Erick Pulga Bahia Active 137 / 129 40% 3 03.02.2028 -
Dejan Joveljić Seattle Sounders Active 142 / 127 40% 1 03.02.2028 -
Tyrese Campbell Sheffield United Active 144 / 138 40% 1 03.02.2028 -
Bénie Traoré New York City Active 138 / 121 40% 1 31.01.2028 -
José Hurtado Bragantino Active 124 / 124 40% 1 31.01.2028 -
Vinicinho Bragantino Active 127 / 135 40% 2 30.01.2028 -
Alexis Cuello San Lorenzo Active 128 / 130 40% 8 30.01.2028 -
Rony Vasco da Gama Active 134 / 126 40% 2 30.01.2028 -
Alesson Torpedo Moscow Active 133 / 122 40% 1 30.01.2028 -
Iván Angulo Orlando City Active 126 / 135 40% 4 28.01.2028 -
Gérson Cruzeiro Active 133 / 142 40% 5 27.01.2028 -
Tadeo Allende Inter Miami CF Active 115 / 127 40% 4 27.01.2028 -
Martín Ojeda Orlando City Active 139 / 139 40% 1 27.01.2028 -
Levi Garcia Spartak Moscow Active 139 / 126 40% 1 27.01.2028 -
Fábio Carvalho Sheffield Wednesday Active 142 / 139 40% 1 25.01.2028 -
Armindo Sieb Los Angeles Football Club Active 117 / 129 40% 2 24.01.2028 -
Lewis Morgan SuperSport United Active 135 / 122 40% 1 24.01.2028 -
Henry Mosquera Bragantino Rejected 135 / 136 40% 4 23.01.2028 Reject
Cheikh Sabaly Vancouver Whitecaps Active 117 / 130 40% 1 21.01.2028 -
Juninho Capixaba Bragantino Active 122 / 123 40% 1 21.01.2028 -
Leonardo Campana New England Revolution Active 138 / 128 40% 2 20.01.2028 -
Claudio Spinelli Vasco da Gama Active 134 / 126 40% 2 20.01.2028 -
Luca Langoni Colorado Rapids Active 143 / 137 40% 3 18.01.2028 -
Myrto Uzuni Austin FC Active 138 / 130 40% 1 17.01.2028 -
Gustavo Neves Bragantino Active 130 / 132 40% 2 16.01.2028 -
Hércules Fluminense Active 135 / 134 40% 1 15.01.2028 -
Ángel Correa River Plate Active 139 / 147 40% 9 10.01.2028 -
Cauan Barros Vasco da Gama Active 137 / 135 40% 1 07.01.2028 -
Rodrigo Castillo Fluminense Lost 122 / 127 40% 1 28.12.2027 -
Louis Munteanu DC United Active 128 / 126 40% 1 28.12.2027 -
Negueba Mirassol Lost 124 / 128 69% 1 27.12.2027 Needs More Info
Mateo Cassierra Atlético Mineiro Active 130 / 139 69% 1 13.12.2027 Approve
Zeki Amdouni Burnley Active 136 / 140 40% 1 04.12.2027 -
Joe Gelhardt Hull City Active 136 / 140 40% 1 04.12.2027 -
Willian José Bahia Lost 111 / 126 69% 1 01.12.2027 -
Samuel Lino Flamengo Active 148 / 141 40% 4 30.11.2027 -
Artur Botafogo Active 132 / 132 40% 1 30.11.2027 -
Antonio Galeano Remo Stars Active 120 / 128 40% 1 30.11.2027 -
Nuno Moreira Vasco da Gama Lost 130 / 132 40% 4 22.08.2027 -
Osher Davida Maccabi Tel Aviv Active 131 / 124 40% 1 21.08.2027 -
Maurício Palmeiras Active 144 / 140 40% 1 21.08.2027 -
Donyell Malen AS Roma Active 166 / 157 40% 7 19.08.2027 -
Hélio Varela Maccabi Tel Aviv Active 130 / 121 40% 1 19.08.2027 -
Romano Schmid Frosinone Active 155 / 152 40% 1 19.08.2027 -
Dany Mota Monza Active 142 / 128 40% 1 18.08.2027 -
Andrea Colpani Monza Active 136 / 137 40% 1 16.08.2027 -
Jesús Rodríguez Como Active 144 / 156 40% 2 14.08.2027 -
Nahuel Molina AS Roma Active 152 / 144 40% 1 13.08.2027 -
Duvan Rangel La Equidad Active 143 / 138 40% 1 13.08.2027 -
Matías Soulé AS Roma Active 153 / 163 40% 3 12.08.2027 -
Nicolò Zaniolo Udinese Active 155 / 149 40% 2 11.08.2027 -
Unai Gómez Udinese Active 147 / 138 40% 1 11.08.2027 -
Jack Rudoni Coventry City Active 149 / 141 40% 4 09.08.2027 -
Ryoya Morishita Blackburn Rovers Active 135 / 130 40% 1 09.08.2027 -
Jacob Ramsey Newcastle United Active 154 / 160 40% 4 08.08.2027 -
Othmane Maamma Watford Active 140 / 131 40% 1 08.08.2027 -
Tom Fellows Southampton Active 140 / 129 40% 8 07.08.2027 -
Zian Flemming Ipswich Town Active 132 / 139 40% 1 07.08.2027 -
Derensili Sanches Fernandes Huddersfield Town Active 129 / 132 40% 1 07.08.2027 -
Kasey McAteer Ipswich Town Active 144 / 141 40% 2 06.08.2027 -
Riley McGree Middlesbrough Active 142 / 136 40% 3 03.08.2027 -
Koki Saito Queens Park Rangers Active 132 / 122 40% 1 03.08.2027 -
Alexis Saelemaekers AC Milan Active 164 / 150 40% 1 02.08.2027 -
Léo Scienza Southampton Active 146 / 134 40% 1 02.08.2027 -
Andre Brooks Sheffield United Active 143 / 135 40% 1 12.07.2027 -
Gonzalo Fulham Active 143 / 140 40% 8 31.05.2027 -
Georginio Rutter Brighton Active 155 / 150 40% 5 31.05.2027 -
Keinan Davis Udinese Active 140 / 130 40% 1 31.05.2027 -
Xavi Simons Tottenham Active 169 / 165 40% 3 30.05.2027 -
Harry Wilson Leeds United Active 142 / 147 40% 3 30.05.2027 -
Amadou Onana Aston Villa Active 152 / 160 40% 2 30.05.2027 -
Curtis Jones Inter Active 150 / 155 40% 2 30.05.2027 -
Hector Ramirez Newcastle United Active 164 / 153 40% 1 30.05.2027 -
Adrien Truffert Bournemouth Active 142 / 146 40% 1 29.05.2027 Needs More Info
Luke McNally Bristol City Active 141 / 130 40% 1 29.05.2027 -
Carlos Vicente Birmingham Active 145 / 147 40% 9 28.05.2027 -
Kerem Aktürkoğlu Fenerbahce Active 134 / 137 40% 3 26.05.2027 -
Kevin Fulham Active 143 / 145 40% 2 26.05.2027 -
Mats Wieffer Brighton Active 157 / 152 40% 3 23.05.2027 -
John McGinn Aston Villa Active 139 / 152 40% 2 22.05.2027 -
Sorba Thomas Stoke City Active 127 / 134 40% 3 21.05.2027 -
Kenan Yıldız Juventus Active 162 / 172 40% 3 21.05.2027 -
Marcus Edwards Burnley Active 131 / 145 40% 3 19.05.2027 -
Luís Henrique Inter Active 141 / 137 40% 1 18.05.2027 -
Callum Hudson-Odoi Nottingham Forest Active 142 / 143 40% 2 17.05.2027 -
Welington Southampton Active 134 / 124 40% 6 14.05.2027 -
Francisco Conceição Juventus Active 156 / 166 40% 2 14.05.2027 -
Bosun Lawal Stoke City Active 134 / 127 40% 1 14.05.2027 -
Conor Gallagher Tottenham Active 159 / 152 40% 1 14.05.2027 -
James Maddison Tottenham Active 155 / 152 40% 1 12.05.2027 -
Carlos Alcaraz Everton Active 144 / 152 40% 1 12.05.2027 -
Giacomo Raspadori Atalanta Active 153 / 143 40% 2 09.05.2027 -
Mateo Pellegrino Fiorentina Active 150 / 134 40% 2 08.05.2027 -
Nico González Newcastle United Active 162 / 168 40% 1 08.05.2027 -
Dwight McNeil Crystal Palace Active 148 / 138 40% 1 08.05.2027 -
Dávid Strelec Middlesbrough Active 139 / 139 40% 2 07.05.2027 -
Jarrod Bowen West Ham United Active 157 / 157 40% 1 07.05.2027 -
Marco Asensio Fenerbahce Active 156 / 150 40% 6 05.05.2027 -
Matt O'Riley Brighton Active 146 / 149 40% 1 05.05.2027 -
Amine Adli Bournemouth Active 152 / 140 40% 1 04.05.2027 -
Finn Azaz Southampton Active 126 / 128 40% 1 02.05.2027 -
Morgan Whittaker Middlesbrough Active 136 / 136 40% 1 01.05.2027 -
Hwang Hee-Chan Wolverhampton Active 125 / 131 40% 1 29.04.2027 -
Mohammed Kudus Tottenham Active 150 / 148 40% 1 27.04.2027 -
Mateo Retegui Tottenham Active 170 / 154 40% 1 27.04.2027 -
Barış Alper Yılmaz Galatasaray Active 163 / 150 40% 3 26.04.2027 -
Brian Brobbey Sunderland Active 150 / 146 40% 3 26.04.2027 -
Ricardo Horta Braga Active 150 / 155 40% 11 24.04.2027 -
Víctor Gómez Braga Active 133 / 141 40% 7 24.04.2027 -
Francisco Moura Lusitânia Lourosa Active 133 / 137 40% 7 24.04.2027 -
Pepê Porto Active 148 / 152 40% 10 23.04.2027 -
Roberto Fernández Braga Active 141 / 134 40% 5 23.04.2027 -
Romelu Castagne KV Oostende Active 138 / 127 40% 3 21.04.2027 -
Alberto Costa Porto Active 135 / 149 40% 5 21.04.2027 -
Gonçalo Ramos AC Milan Active 159 / 152 40% 1 21.04.2027 -
Diego Lainez Tigres Active 143 / 137 40% 7 19.04.2027 -
Santi García Gil Vicente Active 140 / 140 40% 8 16.04.2027 -
Geny Sporting CP Active 143 / 136 40% 2 16.04.2027 -
Iván Fresneda Sporting CP Active 140 / 140 40% 7 15.04.2027 -
Nuno Santos Sporting CP Active 131 / 146 40% 3 14.04.2027 -
Andrea Carboni Monza Active 138 / 133 40% 1 12.04.2027 -
Soungoutou Magassa West Ham United Active 127 / 130 40% 1 12.04.2027 -
Agustín Palavecino Cruz Azul Active 150 / 135 40% 6 10.04.2027 -
João Carvalho Estoril Praia Active 123 / 129 40% 2 10.04.2027 -
Max Bird Birmingham Active 127 / 134 40% 2 09.04.2027 -
Luís Esteves Atlas Active 121 / 136 40% 2 09.04.2027 -
Callum Doyle Wrexham Active 126 / 135 40% 1 09.04.2027 -
Pau Víctor AVS Active 142 / 129 40% 10 07.04.2027 -
Luka Jović AEK Active 147 / 128 40% 5 07.04.2027 -
Eduardo Quaresma Sporting CP Active 148 / 142 40% 2 06.04.2027 -
Yoan Bonny Inter Active 139 / 153 40% 3 06.04.2027 -
Aidan Morris Middlesbrough Active 133 / 125 40% 1 06.04.2027 -
Shea Charles Southampton Active 134 / 136 40% 1 05.04.2027 -
Jacques Ekomié Wrexham Active 136 / 122 40% 1 05.04.2027 -
Dodi Lukébakio Benfica Active 154 / 152 40% 5 01.04.2027 -
Musa Barrow Al-Khaleej Active 131 / 139 40% 2 01.04.2027 -
Erick Sánchez OGC Nice Active 138 / 136 40% 2 01.04.2027 -
Amine Gouiri Olympique de Marseille Active 136 / 152 40% 2 30.03.2027 -
Jesús Ricardo Angulo Toluca Active 132 / 122 40% 8 29.03.2027 -
Harry Clarke Preston Active 118 / 121 40% 1 29.03.2027 -
Renato Sanches AVS Active 143 / 123 40% 1 25.03.2027 -
Heorhii Sudakov Benfica Active 151 / 144 40% 7 24.03.2027 -
Mario Dorgeles Braga Active 122 / 136 40% 8 23.03.2027 -
Ozziel Herrera Tigres Active 141 / 134 40% 1 22.03.2027 -
Félix Lemaréchal Club Brugge Active 145 / 136 40% 4 21.03.2027 -
Rafik Guitane Estoril Praia Active 127 / 130 40% 4 21.03.2027 -
Gianluca Prestianni Benfica Active 143 / 141 40% 5 20.03.2027 -
Jens Odgaard Bologna Active 135 / 141 40% 1 16.03.2027 -
William Gomes Porto Active 139 / 145 40% 7 14.03.2027 -
Anel Ahmedhodžić Burnley Active 137 / 130 40% 1 14.03.2027 -
Hwang In-Beom Porto Active 132 / 150 40% 3 11.03.2027 -
Jesús Angulo Tigres Active 148 / 139 40% 4 10.03.2027 -
Orbelín Pineda Monterrey Active 148 / 133 40% 4 07.03.2027 -
Ivan Toney Al-Ahli Active 153 / 148 40% 7 03.03.2027 -
Hamza Igamane LOSC Lille Active 132 / 135 40% 1 03.03.2027 -
Georges-Kévin Nkoudou Al-Diriyah Active 136 / 133 40% 1 01.03.2027 -
Yoane Wissa Newcastle United Active 132 / 138 40% 9 24.02.2027 -
Yehor Yarmoliuk Brentford Active 145 / 145 40% 2 19.02.2027 -
Soufiane Rahimi Guadalajara Active 125 / 134 40% 2 17.02.2027 -
Brian Rodríguez Club America Active 125 / 137 40% 2 13.02.2027 -
Diego Rossi Monterrey Active 124 / 133 40% 2 04.02.2027 -
Tammy Abraham Aston Villa Active 140 / 146 40% 3 03.02.2027 -
Christian Krasnodar Active 134 / 129 40% 1 02.02.2027 -
Nuno Tavares Lazio Active 157 / 143 40% 1 02.02.2027 -
Hany Mukhtar Spezia Active 141 / 140 40% 1 31.01.2027 -
Adnan Courtois KV Oostende Active 138 / 131 40% 1 31.01.2027 -
Tomás Araújo Benfica Active 152 / 143 40% 8 29.01.2027 -
Jesús Orozco Chiquete Cruz Azul Active 135 / 138 40% 2 29.01.2027 -
Ethan Galbraith Swansea City Active 127 / 125 40% 1 29.01.2027 -
João Palhinha Benfica Active 145 / 157 40% 5 26.01.2027 -
Luciano Acosta Fluminense Active 136 / 130 40% 1 23.01.2027 -
Marcelo Allende Mamelodi Sundowns Active 132 / 132 40% 1 21.01.2027 -
Rashid Rashid Sparta Prague Active 138 / 138 40% 1 21.01.2027 -
Ansu Fati Monaco Active 128 / 144 40% 2 18.01.2027 -
Che Adams Torino Active 133 / 135 40% 3 17.01.2027 -
Andreas Pereira Palmeiras Active 139 / 140 40% 1 15.01.2027 -
Rémi Lemoine Chamois Niortais Active 146 / 157 40% 5 06.01.2027 -
Nicolás de la Cruz Flamengo Active 146 / 132 40% 2 05.01.2027 -
Andrea Pinamonti Lazio Active 128 / 139 40% 2 04.01.2027 -
Pedro Porro Tottenham Active 136 / 144 40% 3 02.01.2027 -
Juan Pablo Freytes Fluminense Active 120 / 131 40% 1 02.01.2027 -
Victor Froholdt Porto Active 143 / 150 40% 7 31.12.2026 -
Nathan Collins Brentford Active 143 / 146 40% 1 31.12.2026 -
Florentino Luís Ipswich Town Active 140 / 133 40% 1 27.12.2026 -
Gonçalo Inácio Sporting CP Active 145 / 157 40% 6 24.12.2026 -
Tyrell Malacia Monaco Active 148 / 126 40% 1 24.12.2026 -
Bright Arrey-Mbi Braga Active 130 / 130 40% 2 23.12.2026 -
Ilay Camara Anderlecht Active 126 / 139 40% 1 22.12.2026 -
Mathias De Amorim Famalicao Active 117 / 134 40% 1 19.12.2026 -
Gustaf Lagerbielke Braga Active 131 / 129 40% 4 18.12.2026 -
Dara O'Shea Ipswich Town Active 138 / 139 40% 2 17.12.2026 -
Matheus Bidu Corinthians Active 125 / 123 40% 2 17.12.2026 -
Dinis Pinto Moreirense Active 119 / 132 40% 1 16.12.2026 -
Noah Sadiki Sunderland Active 152 / 139 40% 1 16.12.2026 -
Pablo Felipe West Ham United Active 121 / 131 40% 1 15.12.2026 -
Lukáš Červ Viktoria Plzen Active 126 / 124 40% 1 15.12.2026 -
Emerson Royal Flamengo Active 131 / 139 40% 1 14.12.2026 -
Juanlu Bournemouth Active 138 / 140 40% 1 07.12.2026 -
Gabriel Veron Porto Active 119 / 128 40% 2 06.12.2026 -
Gustavo Marques Bragantino Active 131 / 126 40% 1 01.12.2026 -
Nordi Mukiele Sunderland Active 134 / 136 40% 1 27.11.2026 -
Gabriel Jesus Barcelona Active 143 / 152 40% 8 25.11.2026 -
Petar Musa Adana Demirspor Active 130 / 133 40% 2 23.11.2026 -
Pablo Rosario Porto Active 131 / 132 40% 3 16.11.2026 -
Lee Hyun-Ju Arouca Active 130 / 127 40% 1 15.11.2026 -
Zeno Debast Sporting CP Active 140 / 133 40% 4 14.11.2026 -
Joshua Zirkzee Manchester United Active 152 / 149 40% 4 14.11.2026 -
Randal Kolo Muani Juventus Active 150 / 138 40% 3 14.11.2026 -
Fabrício Bruno Cruzeiro Active 130 / 130 40% 1 10.11.2026 -
Lorougnon Gohi Académico de Viseu Active 124 / 119 40% 1 06.11.2026 -
Leon Goretzka Aston Villa Active 167 / 149 40% 2 02.11.2026 -
Alexey Miranchuk St. Gallen Active 154 / 146 40% 3 30.10.2026 -
Leandro Barreiro Benfica Active 126 / 135 40% 3 29.10.2026 -
Taty Castellanos West Ham United Active 145 / 140 40% 2 20.10.2026 -
Jean-Philippe Mateta Crystal Palace Active 144 / 158 40% 3 17.10.2026 -
Alexander Bah Benfica Active 125 / 137 40% 1 15.10.2026 -
Joaquín Piquerez Palmeiras Active 129 / 138 40% 1 09.10.2026 -
Thorgan Witsel KV Oostende Active 129 / 144 40% 1 09.10.2026 -
Luis Suárez Chelsea Active 158 / 150 40% 1 09.10.2026 -
Youssef En-Nesyri Al-Ittihad Active 130 / 147 40% 3 05.10.2026 -
Noah Okafor Leeds United Active 127 / 138 40% 1 05.10.2026 -
Eddie Nketiah Crystal Palace Active 147 / 132 40% 1 02.10.2026 -
Guilherme Arana Fluminense Active 137 / 132 40% 2 28.09.2026 -
Mauro Arambarri River Plate Active 153 / 159 40% 2 26.09.2026 -
William Cruzeiro Active 126 / 139 40% 1 26.09.2026 -
Léo Ortiz Flamengo Active 143 / 134 40% 1 24.09.2026 -
Sergi Altimira Sporting CP Active 124 / 133 40% 1 20.09.2026 -
Facundo Colidio Vasco da Gama Active 133 / 124 40% 1 19.09.2026 -
Thiago Brentford Active 147 / 148 40% 2 16.09.2026 -
Yankuba Minteh Brighton Active 145 / 154 40% 1 03.09.2026 -
Guus Til PSV Active 136 / 145 40% 1 31.08.2026 -
Luke Shaw Manchester United Active 151 / 159 40% 1 25.08.2026 -
Brais Méndez Columbus Crew Active 151 / 155 40% 1 19.08.2026 -
João Simões Sporting CP Active 136 / 132 40% 1 19.08.2026 -
Breel Embolo Atlanta United FC Active 125 / 137 40% 1 15.08.2026 -
Lucas Veríssimo Santos Active 131 / 130 40% 1 15.08.2026 -
Marcos Llorente Atlético Madrid Active 170 / 158 40% 1 07.08.2026 -
Antony Betis Active 145 / 158 40% 1 06.08.2026 -
Endrick Real Madrid Active 156 / 154 40% 1 05.08.2026 -
Gonçalo Guedes Real Sociedad Active 147 / 156 40% 1 05.08.2026 -
Andreas Christensen Barcelona Active 139 / 146 40% 1 04.08.2026 -
Karim Adeyemi Barcelona Active 161 / 159 40% 1 04.08.2026 -